This is the latest recevied weather packets stored in our database for station/object W6UA-13. If no packets are shown the sender has not sent any weather packets the latest 10 day(s).
| Time | Temp. | Humidity | Pressure | Rain* | Wind** | Luminosity | Snow |
|---|---|---|---|---|---|---|---|
| 1777583990 | 23.89° C | 53% | 1013.1 hPa | 0 mm | - | 844 W/m² | - |
| 1777583090 | 22.78° C | 54% | 1013.2 hPa | 0 mm | - | 860 W/m² | - |
| 1777582190 | 24.44° C | 52% | 1012.9 hPa | 0 mm | - | 872 W/m² | - |
| 1777581290 | 22.78° C | 54% | 1012.9 hPa | 0 mm | - | 886 W/m² | - |
| 1777580390 | 22.22° C | 57% | 1013 hPa | 0 mm | - | 888 W/m² | - |
| 1777579490 | 22.78° C | 52% | 1013 hPa | 0 mm | - | 889 W/m² | - |
| 1777578590 | 22.78° C | 56% | 1013.1 hPa | 0 mm | - | 882 W/m² | - |
| 1777577690 | 21.67° C | 59% | 1013.2 hPa | 0 mm | - | 875 W/m² | - |
| 1777576790 | 20.56° C | 60% | 1013.4 hPa | 0 mm | - | 865 W/m² | - |
| 1777575890 | 19.44° C | 63% | 1013.7 hPa | 0 mm | - | 847 W/m² | - |
| 1777574990 | 20° C | 64% | 1013.7 hPa | 0 mm | - | 840 W/m² | - |
| 1777574090 | 19.44° C | 64% | 1013.8 hPa | 0 mm | - | 821 W/m² | - |
| 1777573190 | 19.44° C | 64% | 1013.8 hPa | 0 mm | - | 802 W/m² | - |
| 1777572290 | 18.89° C | 68% | 1013.9 hPa | 0 mm | - | 773 W/m² | - |
| 1777571390 | 19.44° C | 67% | 1013.8 hPa | 0 mm | - | 742 W/m² | - |
| 1777570490 | 18.89° C | 68% | 1013.8 hPa | 0 mm | - | 705 W/m² | - |
| 1777569590 | 18.33° C | 70% | 1013.8 hPa | 0 mm | - | 673 W/m² | - |
| 1777568690 | 17.22° C | 73% | 1014 hPa | 0 mm | - | 635 W/m² | - |
| 1777567790 | 16.11° C | 75% | 1014.2 hPa | 0 mm | - | 594 W/m² | - |
| 1777566890 | 16.11° C | 76% | 1014.2 hPa | 0 mm | - | 540 W/m² | - |
| 1777565990 | 15° C | 78% | 1014.3 hPa | 0 mm | - | 455 W/m² | - |
| 1777565090 | 12.78° C | 87% | 1014.3 hPa | 0 mm | - | 459 W/m² | - |
| 1777564190 | 11.67° C | 90% | 1014.3 hPa | 0 mm | - | 160 W/m² | - |
| 1777563290 | 11.11° C | 90% | 1014.3 hPa | 0 mm | - | 158 W/m² | - |
| 1777562390 | 11.11° C | 90% | 1014.3 hPa | 0 mm | - | 146 W/m² | - |
* Rain latest hour (hover to see other rain measurements)
** Current wind speed in m/s (hover to see current wind gust speed)